| time (UTC) | temp C | wind direction | speed KPH | gust KPH | rain 1hr cm | rain 24hr cm | rain mn cm | humidity % | barometer mb |
| 20260505234527 | 11 | 336 | 3.2 | 6.4 | 0.00 | 1.12 | 0.13 | 58 | 985.3 |
| 20260505233024 | 11 | 327 | 4.8 | 6.4 | 0.00 | 1.12 | 0.13 | 62 | 985.4 |
| 20260505231525 | 11 | 325 | 3.2 | 4.8 | 0.00 | 1.12 | 0.13 | 62 | 985.5 |
| 20260505230014 | 11 | 336 | 3.2 | 6.4 | 0.00 | 1.12 | 0.13 | 61 | 985.6 |
| 20260505224510 | 11 | 315 | 1.6 | 8.0 | 0.00 | 1.12 | 0.13 | 61 | 985.7 |
| 20260505223004 | 11 | 328 | 4.8 | 9.7 | 0.00 | 1.12 | 0.13 | 61 | 985.7 |
| 20260505221604 | 11 | 330 | 3.2 | 8.0 | 0.00 | 1.12 | 0.13 | 61 | 985.7 |
| 20260505220057 | 11 | 333 | 4.8 | 9.7 | 0.00 | 1.12 | 0.13 | 61 | 985.6 |
| 20260505214552 | 11 | 338 | 3.2 | 6.4 | 0.00 | 1.12 | 0.13 | 61 | 985.5 |
| 20260505213049 | 11 | 355 | 4.8 | 8.0 | 0.00 | 1.12 | 0.13 | 61 | 985.7 |
| 20260505211545 | 11 | 61 | 1.6 | 9.7 | 0.03 | 1.12 | 0.13 | 61 | 985.7 |
| 20260505210039 | 11 | 351 | 6.4 | 12.9 | 0.03 | 1.12 | 0.13 | 60 | 985.9 |
| 20260505204536 | 10 | 355 | 4.8 | 11.3 | 0.03 | 1.12 | 0.13 | 60 | 986.2 |
| 20260505203034 | 10 | 355 | 6.4 | 12.9 | 0.03 | 1.12 | 0.13 | 61 | 986.5 |
| 20260505201532 | 10 | 348 | 6.4 | 12.9 | 0.00 | 1.09 | 0.10 | 60 | 986.8 |
| 20260505200020 | 10 | 336 | 6.4 | 16.1 | 0.03 | 1.09 | 0.10 | 58 | 986.9 |
| 20260505194521 | 11 | 355 | 8.0 | 17.7 | 0.03 | 1.09 | 0.10 | 56 | 987.0 |
| 20260505193011 | 10 | 347 | 6.4 | 12.9 | 0.05 | 1.09 | 0.10 | 55 | 987.0 |
| 20260505191507 | 10 | 317 | 8.0 | 14.5 | 0.08 | 1.09 | 0.10 | 55 | 987.1 |
| 20260505190003 | 10 | 350 | 8.0 | 14.5 | 0.05 | 1.07 | 0.08 | 51 | 987.2 |
| 20260505184603 | 10 | 355 | 11.3 | 16.1 | 0.08 | 1.07 | 0.08 | 55 | 987.1 |
| 20260505183054 | 11 | 349 | 8.0 | 12.9 | 0.05 | 1.04 | 0.05 | 50 | 987.0 |
| 20260505181550 | 11 | 321 | 8.0 | 14.5 | 0.03 | 1.02 | 0.03 | 51 | 987.2 |
| 20260505180046 | 11 | 351 | 14.5 | 22.5 | 0.03 | 1.02 | 0.03 | 59 | 987.0 |
| 20260505174541 | 11 | 317 | 12.9 | 20.9 | 0.00 | 0.99 | 0.00 | 60 | 986.9 |
| 20260505173036 | 11 | 330 | 8.0 | 19.3 | 0.00 | 0.99 | 0.00 | 60 | 986.8 |
| 20260505171534 | 11 | 337 | 9.7 | 16.1 | 0.00 | 0.99 | 0.00 | 58 | 986.9 |
| 20260505170028 | 11 | 355 | 9.7 | 16.1 | 0.00 | 0.99 | 0.00 | 58 | 986.6 |
| 20260505164524 | 11 | 5 | 6.4 | 11.3 | 0.00 | 0.99 | 0.00 | 59 | 986.6 |
| 20260505163018 | 11 | 360 | 6.4 | 14.5 | 0.00 | 0.99 | 0.00 | 60 | 986.6 |
| 20260505161517 | 11 | 11 | 14.5 | 19.3 | 0.00 | 0.99 | 0.00 | 60 | 986.5 |
| 20260505153108 | 11 | 35 | 6.4 | 14.5 | 0.00 | 0.99 | 0.00 | 56 | 985.5 |
| 20260505151600 | 11 | 15 | 3.2 | 14.5 | 0.00 | 0.99 | 0.00 | 55 | 985.1 |
| 20260505124512 | 10 | 306 | 14.5 | 30.6 | 0.00 | 0.99 | 0.00 | 63 | 986.0 |
| 20260505123007 | 10 | 335 | 16.1 | 29.0 | 0.00 | 0.99 | 0.00 | 61 | 985.8 |
| 20260505121503 | 10 | 314 | 17.7 | 27.4 | 0.00 | 0.99 | 0.00 | 61 | 985.6 |
| 20260505120107 | 10 | 332 | 20.9 | 29.0 | 0.00 | 0.99 | 0.00 | 61 | 985.3 |
| 20260505114555 | 11 | 300 | 14.5 | 22.5 | 0.00 | 0.99 | 0.00 | 61 | 985.3 |
| 20260505113052 | 11 | 349 | 9.7 | 17.7 | 0.00 | 0.99 | 0.00 | 61 | 984.7 |
| 20260505111546 | 11 | 311 | 11.3 | 16.1 | 0.00 | 0.99 | 0.00 | 61 | 983.8 |
| 20260505101530 | 12 | 355 | 16.1 | 22.5 | 0.00 | 0.99 | 0.00 | 60 | 983.4 |
| 20260505100029 | 12 | 332 | 9.7 | 19.3 | 0.00 | 0.99 | 0.00 | 60 | 983.1 |
| 20260505094520 | 12 | 355 | 12.9 | 20.9 | 0.00 | 0.99 | 0.00 | 60 | 983.2 |
| 20260505093015 | 12 | 360 | 8.0 | 24.1 | 0.00 | 0.99 | 0.00 | 60 | 983.3 |
| 20260505091511 | 12 | 341 | 4.8 | 9.7 | 0.00 | 0.99 | 0.00 | 59 | 983.3 |
| 20260505090005 | 13 | 351 | 11.3 | 20.9 | 0.00 | 0.99 | 0.00 | 60 | 982.9 |
| 20260505084501 | 13 | 5 | 11.3 | 19.3 | 0.00 | 0.99 | 0.00 | 58 | 982.6 |
| 20260505083111 | 13 | 11 | 9.7 | 19.3 | 0.00 | 0.99 | 0.00 | 58 | 982.8 |
| 20260505081601 | 13 | 325 | 3.2 | 8.0 | 0.00 | 0.99 | 0.00 | 53 | 982.8 |
| 20260505080058 | 13 | 336 | 1.6 | 4.8 | 0.00 | 0.99 | 0.00 | 51 | 982.6 |
| 20260505074545 | 13 | 309 | 6.4 | 11.3 | 0.00 | 0.99 | 0.00 | 52 | 982.2 |
| 20260505073050 | 13 | 333 | 4.8 | 9.7 | 0.00 | 0.99 | 0.00 | 9 | 981.4 |
| 20260505071545 | 13 | 336 | 0.0 | 8.0 | 0.00 | 0.99 | 0.00 | 100 | 981.2 |
| 20260505070041 | 13 | 341 | 6.4 | 11.3 | 0.00 | 0.99 | 0.00 | 100 | 981.0 |
| 20260505064527 | 13 | 323 | 6.4 | 9.7 | 0.00 | 0.99 | 0.00 | 100 | 980.6 |
| 20260505063029 | 13 | 145 | 0.0 | 3.2 | 0.00 | 0.99 | 0.00 | 100 | 980.4 |
| 20260505061526 | 13 | 145 | 0.0 | 0.0 | 0.00 | 0.99 | 0.00 | 100 | 980.4 |
| 20260505060024 | 13 | 145 | 0.0 | 4.8 | 0.00 | 0.99 | 0.00 | 100 | 980.5 |
| 20260505054510 | 13 | 144 | 1.6 | 4.8 | 0.00 | 0.99 | 0.00 | 100 | 980.0 |
| 20260505053006 | 13 | 144 | 0.0 | 6.4 | 0.00 | 0.99 | 0.00 | 100 | 979.6 |
| 20260505051601 | 13 | 144 | 3.2 | 11.3 | 0.00 | 0.99 | 0.00 | 100 | 979.6 |
| 20260505041553 | 13 | 115 | 11.3 | 20.9 | 0.99 | 0.99 | 0.99 | 100 | 978.5 |
| 20260505040046 | 13 | 107 | 1.6 | 14.5 | 0.94 | 0.94 | 0.94 | 100 | 978.1 |
| 20260505034534 | 14 | 344 | 1.6 | 22.5 | 0.89 | 0.89 | 0.89 | 100 | 978.7 |
| 20260505033033 | 19 | 350 | 24.1 | 54.7 | 0.00 | 0.00 | 0.00 | 61 | 979.6 |
| 20260505031526 | 20 | 63 | 3.2 | 14.5 | 0.00 | 0.00 | 0.00 | 57 | 977.2 |
| 20260505030021 | 20 | 338 | 16.1 | 24.1 | 0.00 | 0.00 | 0.00 | 61 | 977.7 |
| 20260505024518 | 21 | 205 | 3.2 | 11.3 | 0.00 | 0.00 | 0.00 | 63 | 977.2 |
| 20260505023012 | 21 | 196 | 9.7 | 19.3 | 0.00 | 0.00 | 0.00 | 63 | 976.8 |
| 20260505021508 | 21 | 197 | 12.9 | 19.3 | 0.00 | 0.00 | 0.00 | 63 | 976.7 |
| 20260505020004 | 21 | 192 | 14.5 | 24.1 | 0.00 | 0.00 | 0.00 | 62 | 976.5 |
| 20260505014611 | 21 | 186 | 12.9 | 22.5 | 0.00 | 0.00 | 0.00 | 61 | 976.4 |
| 20260505013057 | 22 | 183 | 14.5 | 25.7 | 0.00 | 0.00 | 0.00 | 61 | 976.3 |
| 20260505011556 | 22 | 180 | 14.5 | 29.0 | 0.00 | 0.00 | 0.00 | 61 | 976.2 |
| 20260505010054 | 22 | 196 | 14.5 | 25.7 | 0.00 | 0.00 | 0.00 | 61 | 976.1 |
| 20260505004549 | 22 | 167 | 17.7 | 30.6 | 0.00 | 0.00 | 0.00 | 60 | 976.0 |
| 20260505003053 | 23 | 188 | 19.3 | 27.4 | 0.00 | 0.00 | 0.00 | 59 | 976.1 |
| 20260505001533 | 23 | 175 | 16.1 | 25.7 | 0.00 | 0.00 | 0.00 | 58 | 976.2 |
| 20260505000034 | 23 | 183 | 17.7 | 29.0 | 0.00 | 0.00 | 0.00 | 58 | 976.3 |